createdAt,value
2023-03-06T00:00:02.431Z,8.83
2023-03-06T00:15:04.035Z,8.74
2023-03-06T00:30:01.974Z,8.57
2023-03-06T00:45:01.641Z,8.5
2023-03-06T01:00:02.325Z,8.59
2023-03-06T01:15:02.033Z,8.94
2023-03-06T01:30:01.838Z,9.57
2023-03-06T01:45:01.588Z,8.86
2023-03-06T02:00:02.320Z,8.72
2023-03-06T02:15:02.039Z,8.64
2023-03-06T02:30:01.741Z,8.87
2023-03-06T02:45:01.560Z,9.05
2023-03-06T03:00:02.248Z,9.33
2023-03-06T03:15:01.941Z,9.47
2023-03-06T03:30:01.662Z,9.57
2023-03-06T03:45:01.355Z,9.15
2023-03-06T04:00:02.101Z,8.94
2023-03-06T04:15:01.784Z,8.99
2023-03-06T04:30:01.509Z,8.9
2023-03-06T04:45:02.200Z,8.82
2023-03-06T05:00:01.854Z,8.89
2023-03-06T05:15:01.564Z,8.28
2023-03-06T05:30:01.213Z,7.8
2023-03-06T05:45:01.833Z,8.04
2023-03-06T06:00:01.481Z,7.82
2023-03-06T06:15:02.486Z,7.51
2023-03-06T06:30:02.124Z,7.24
2023-03-06T06:45:01.739Z,7.33
2023-03-06T07:00:02.389Z,7.39
2023-03-06T07:15:02.040Z,7.01
2023-03-06T07:30:01.857Z,6.93
2023-03-06T07:45:01.490Z,7.17
2023-03-06T08:00:02.095Z,7.47
2023-03-06T08:15:01.765Z,7.62
2023-03-06T08:30:01.433Z,7.29
2023-03-06T08:45:02.087Z,7.73
2023-03-06T09:00:01.700Z,7.88
2023-03-06T09:15:01.345Z,8.04
2023-03-06T09:30:02.027Z,9.38
2023-03-06T09:45:01.667Z,12.51
2023-03-06T10:00:04.076Z,13.08
2023-03-06T10:15:02.235Z,12.44
2023-03-06T10:30:03.899Z,13.04
2023-03-06T10:45:01.887Z,14.37
2023-03-06T11:00:01.536Z,19.35
2023-03-06T11:15:02.225Z,21.93
2023-03-06T11:30:01.915Z,16.97
2023-03-06T11:45:03.051Z,23.64
2023-03-06T12:00:01.942Z,17.61
2023-03-06T12:15:01.730Z,16.92
2023-03-06T12:30:01.465Z,15.71
2023-03-06T12:45:02.120Z,18.39
2023-03-06T13:00:01.775Z,25.01
2023-03-06T13:15:01.404Z,25.92
2023-03-06T13:30:02.087Z,20.56
2023-03-06T13:45:01.761Z,17.83
2023-03-06T14:00:08.950Z,19.92
2023-03-06T14:15:01.709Z,20.4
2023-03-06T14:30:02.404Z,18.13
2023-03-06T14:45:02.105Z,17.52
2023-03-06T15:00:01.748Z,17.46
2023-03-06T15:15:02.365Z,19.21
2023-03-06T15:30:02.055Z,17.25
2023-03-06T15:45:01.790Z,15.04
2023-03-06T16:00:01.488Z,14.22
2023-03-06T16:15:02.212Z,12.95
2023-03-06T16:30:01.869Z,12.3
2023-03-06T16:45:01.554Z,11.56
2023-03-06T17:00:02.261Z,10.62
2023-03-06T17:15:01.986Z,10.22
2023-03-06T17:30:01.694Z,9.9
2023-03-06T17:45:01.331Z,9.79
2023-03-06T18:00:01.998Z,9.67
2023-03-06T18:15:02.014Z,9.67
2023-03-06T18:30:01.745Z,9.72
2023-03-06T18:45:02.427Z,9.71
2023-03-06T19:00:02.110Z,9.9
2023-03-06T19:15:01.816Z,9.08
2023-03-06T19:30:02.517Z,9.21
2023-03-06T19:45:02.187Z,8.83
2023-03-06T20:00:01.870Z,8.36
2023-03-06T20:15:01.547Z,8.14
2023-03-06T20:30:02.264Z,8.02
2023-03-06T20:45:01.961Z,7.85
2023-03-06T21:00:01.696Z,7.7
2023-03-06T21:15:02.426Z,7.66
2023-03-06T21:30:02.113Z,7.68
2023-03-06T21:45:01.904Z,7.62
2023-03-06T22:00:01.591Z,7.66
2023-03-06T22:15:02.263Z,7.68
2023-03-06T22:30:01.967Z,7.68
2023-03-06T22:45:01.675Z,7.58
2023-03-06T23:00:02.355Z,7.35
2023-03-06T23:15:02.183Z,7.29
2023-03-06T23:30:01.938Z,7.24
2023-03-06T23:45:01.623Z,7.15
